Rogersville, MO (65742)

2:44 AM CST on February 12, 2016 (GMT -0600)
Rogersville | | Change Station
CLOSE
Current Station
Personal Weather Station
Location: Rogersville, MO
Elevation: 1453 ft
Nearby Weather Stations

Elev 1453 ft 37.09 °N, 93.10 °W | Updated 58 seconds ago

Mostly Cloudy
Mostly Cloudy
32.0 °F
Feels Like 32 °F
N
0.0
Wind Variable Wind from SW
Gusts 4.0 mph

Today
High -- | Low -- °F
--% Chance of Precip.
Yesterday
High -- | Low -- °F
Precip. -- in
Pressure 30.14 in
Visibility 10.0 miles
Clouds Mostly Cloudy 11000 ft
Windchill 32 °F
Dew Point 23 °F
Humidity 70%
Rainfall 0.00 in
Snow Depth Not available.
7:05 AM 5:48 PM
Waxing Crescent, 18% visible
METAR KSGF 120752Z 19007KT 10SM BKN110 02/M06 A3012 RMK AO2 SLP205 T00171056
Pressure 30.14 in
Visibility 10.0 miles
Clouds Mostly Cloudy 11000 ft
Windchill 32 °F
Dew Point 23 °F
Humidity 70%
Rainfall 0.00 in
Snow Depth Not available.
7:05 AM 5:48 PM
Waxing Crescent, 18% visible
METAR KSGF 120752Z 19007KT 10SM BKN110 02/M06 A3012 RMK AO2 SLP205 T00171056

10-Day Weather Forecast

Almanac

Astronomy

Feb. 12, 2016 Rise Set
Actual Time
Civil Twilight
Nautical Twilight
Astronomical Twilight
Moon
Length of Visible Light
Length of Day
Tomorrow will be .
, % of the Moon is Illuminated

Today's Extremes

State Highs State Lows

Community

WunderPhotos

Upload Photos

1,892,284 photos uploaded!

WunderBlog® & News

Nearby

Air Quality

  Air Quality AQ Index Pollutant
Not available.

Snow Depth

Station Depth Elevation

Earthquake Activity

City Distance Mag. Time & Date
Minimum magnitude displayed is 2.5.

Coastal Water Temperatures

Place Temperature

Stations

Nearby Weather Stations

Station Location Temp. Windchill Dew Point Humidity Wind Precip. Elev Updated Type
                   

Watches & Warnings

There are currently no watches in effect.